Time;durP1;ratioP1;P1;durP2;ratioP2;P2;SDS_P1;SDS_P2;PMS_P1;PMS_P2;Temp;Humidity;BMP_temperature;BMP_pressure;BME280_temperature;BME280_humidity;BME280_pressure;Samples;Min_cycle;Max_cycle;Signal;HPM_P1;HPM_P2
2023/02/11 00:01:07;;;;;;;0.50;0.50;;;;;;;6.50;100.00;100124.78;5104926;28;20027;-68
2023/02/11 00:03:33;;;;;;;0.50;0.50;;;;;;;6.52;100.00;100149.72;5106762;28;20050;-68
2023/02/11 00:06:00;;;;;;;0.50;0.50;;;;;;;6.52;100.00;100154.00;5108861;28;20030;-67
2023/02/11 00:08:26;;;;;;;0.40;0.40;;;;;;;6.51;100.00;100137.69;5108778;28;20020;-67
2023/02/11 00:10:53;;;;;;;0.40;0.40;;;;;;;6.51;100.00;100148.00;5108791;28;20028;-67
2023/02/11 00:13:18;;;;;;;0.40;0.40;;;;;;;6.48;100.00;100136.81;5108543;28;20054;-67
2023/02/11 00:15:44;;;;;;;0.40;0.40;;;;;;;6.50;100.00;100130.78;5108650;28;20032;-68
2023/02/11 00:18:09;;;;;;;0.50;0.50;;;;;;;6.48;100.00;100132.53;5108260;28;20024;-68
2023/02/11 00:20:37;;;;;;;0.50;0.50;;;;;;;6.46;100.00;100134.22;5090355;28;20020;-67
2023/02/11 00:23:03;;;;;;;0.50;0.50;;;;;;;6.47;100.00;100142.81;5109108;28;20039;-66
2023/02/11 00:25:28;;;;;;;0.50;0.50;;;;;;;6.46;100.00;100136.78;5109578;28;20028;-66
2023/02/11 00:27:54;;;;;;;0.50;0.50;;;;;;;6.48;100.00;100121.34;5108386;28;20107;-67
2023/02/11 00:30:19;;;;;;;0.50;0.50;;;;;;;6.49;100.00;100102.41;5108356;28;20027;-67
2023/02/11 00:32:44;;;;;;;0.50;0.50;;;;;;;6.51;100.00;100100.72;5108396;28;20103;-68
2023/02/11 00:35:10;;;;;;;0.40;0.40;;;;;;;6.52;100.00;100099.84;5089739;28;20499;-68
2023/02/11 00:37:35;;;;;;;0.50;0.50;;;;;;;6.54;100.00;100091.28;5108136;28;20043;-69
2023/02/11 00:40:03;;;;;;;0.43;0.43;;;;;;;6.54;100.00;100086.13;5108201;28;20024;-69
2023/02/11 00:42:28;;;;;;;0.50;0.50;;;;;;;6.55;100.00;100084.41;5107867;28;20020;-72
2023/02/11 00:44:53;;;;;;;0.50;0.50;;;;;;;6.53;100.00;100101.59;5108291;28;20024;-71
2023/02/11 00:47:19;;;;;;;0.40;0.40;;;;;;;6.51;100.00;100092.97;5089489;28;20061;-75
2023/02/11 00:49:44;;;;;;;0.40;0.40;;;;;;;6.52;100.00;100108.44;5107676;28;20032;-73
2023/02/11 00:52:10;;;;;;;0.40;0.40;;;;;;;6.30;100.00;100082.59;5108018;28;20020;-74
2023/02/11 00:54:35;;;;;;;0.50;0.50;;;;;;;6.52;100.00;100102.41;5107928;28;20030;-73
2023/02/11 00:57:01;;;;;;;0.43;0.43;;;;;;;6.51;100.00;100105.88;5107759;28;20028;-74
2023/02/11 00:59:26;;;;;;;0.40;0.40;;;;;;;6.45;100.00;100094.66;5107984;28;20049;-75
2023/02/11 01:01:51;;;;;;;2.05;1.67;;;;;;;6.48;100.00;100049.13;5107809;28;20028;-73
2023/02/11 01:04:17;;;;;;;0.40;0.40;;;;;;;6.49;100.00;100058.56;5089118;28;20027;-73
2023/02/11 01:06:42;;;;;;;0.50;0.50;;;;;;;6.44;100.00;100067.16;5107717;28;20468;-73
2023/02/11 01:09:08;;;;;;;0.50;0.50;;;;;;;6.35;100.00;100069.72;5107710;28;20027;-73
2023/02/11 01:11:33;;;;;;;0.50;0.50;;;;;;;6.32;100.00;100069.72;5107713;28;20507;-74
2023/02/11 01:13:59;;;;;;;0.50;0.50;;;;;;;6.37;100.00;100069.72;5106914;28;20077;-73
2023/02/11 01:16:24;;;;;;;0.40;0.40;;;;;;;6.33;100.00;100068.84;5107032;28;20088;-72
2023/02/11 01:18:49;;;;;;;0.50;0.50;;;;;;;6.33;100.00;100086.88;5107255;28;20035;-73
2023/02/11 01:21:15;;;;;;;0.50;0.50;;;;;;;6.32;100.00;100070.56;5107295;28;20575;-72
2023/02/11 01:23:41;;;;;;;0.40;0.40;;;;;;;6.29;100.00;100069.69;5107128;28;20101;-72
2023/02/11 01:26:06;;;;;;;0.40;0.40;;;;;;;6.23;100.00;100073.09;5107439;28;20085;-71
2023/02/11 01:28:32;;;;;;;0.50;0.50;;;;;;;6.22;100.00;100067.94;5107246;28;20039;-71
2023/02/11 01:31:00;;;;;;;0.43;0.43;;;;;;;6.16;100.00;100059.34;5107252;28;20484;-71
2023/02/11 01:33:25;;;;;;;0.50;0.50;;;;;;;6.16;100.00;100051.63;5106944;28;20135;-72
2023/02/11 01:35:50;;;;;;;1.20;1.20;;;;;;;6.15;100.00;100060.19;5089132;28;20460;-71
2023/02/11 01:38:22;;;;;;;0.50;0.50;;;;;;;6.10;100.00;100059.31;5107187;28;20028;-70
2023/02/11 01:40:58;;;;;;;0.50;0.50;;;;;;;6.14;100.00;100070.47;5106927;28;20020;-70
2023/02/11 01:43:25;;;;;;;0.50;0.50;;;;;;;6.05;100.00;100048.97;5088779;28;20031;-71
2023/02/11 01:45:59;;;;;;;13.55;2.70;;;;;;;6.11;100.00;100068.75;5107055;28;20020;-72
2023/02/11 01:48:27;;;;;;;0.55;0.55;;;;;;;6.14;100.00;100058.47;5088474;28;20127;-72
2023/02/11 01:51:00;;;;;;;0.50;0.50;;;;;;;6.13;100.00;100056.75;5106876;28;20024;-70
2023/02/11 01:59:01;;;;;;;0.60;0.60;;;;;;;6.13;100.00;100085.09;5106955;28;20034;-72
2023/02/11 02:01:27;;;;;;;;;;;;;;;6.20;100.00;100083.38;5107027;28;20020;-71
2023/02/11 02:03:56;;;;;;;1.30;1.30;;;;;;;6.14;100.00;100081.66;5106369;28;19998;-72
2023/02/11 02:06:30;;;;;;;0.40;0.40;;;;;;;6.20;100.00;100080.81;5106891;28;20063;-70
2023/02/11 02:09:07;;;;;;;0.88;0.88;;;;;;;6.21;100.00;100087.72;5106689;28;20468;-72
2023/02/11 02:11:33;;;;;;;0.50;0.50;;;;;;;6.16;100.00;100090.28;5088073;28;20024;-73
2023/02/11 02:13:58;;;;;;;0.52;0.52;;;;;;;6.25;99.86;100101.47;5106443;28;20020;-72
2023/02/11 02:16:32;;;;;;;0.45;0.45;;;;;;;6.24;99.82;100097.16;5087987;28;20020;-72
2023/02/11 02:19:26;;;;;;;0.50;0.50;;;;;;;6.31;99.88;100088.63;5106267;28;20039;-71
2023/02/11 02:22:00;;;;;;;4.03;3.15;;;;;;;6.30;99.91;100102.34;5106311;28;20105;-71
2023/02/11 02:24:55;;;;;;;1.40;1.40;;;;;;;6.29;99.69;100093.75;5106292;28;20020;-71
2023/02/11 02:27:45;;;;;;;0.50;0.50;;;;;;;6.36;99.75;100076.59;5105639;28;20026;-71
2023/02/11 02:30:42;;;;;;;0.40;0.40;;;;;;;6.37;99.57;100078.31;5106166;28;20024;-71
2023/02/11 02:33:23;;;;;;;0.50;0.50;;;;;;;6.37;99.48;100103.25;5105779;28;20042;-72
2023/02/11 02:36:07;;;;;;;0.50;0.50;;;;;;;6.36;99.41;100086.91;5106101;28;20024;-73
2023/02/11 02:39:03;;;;;;;0.45;0.45;;;;;;;6.39;99.23;100086.91;5106043;28;20031;-71
2023/02/11 02:41:32;;;;;;;0.50;0.50;;;;;;;6.37;99.33;100072.31;5106087;28;20074;-71
2023/02/11 02:43:58;;;;;;;0.50;0.50;;;;;;;6.45;99.29;100080.94;5106169;28;20016;-70
2023/02/11 02:46:27;;;;;;;0.47;0.47;;;;;;;6.41;99.23;100084.34;5087607;28;20039;-70
2023/02/11 02:48:53;;;;;;;2.60;2.40;;;;;;;6.41;99.22;100072.31;5105734;28;20129;-71
2023/02/11 02:51:42;;;;;;;0.40;0.40;;;;;;;6.38;99.03;100058.53;5105603;28;20047;-70
2023/02/11 02:54:42;;;;;;;0.50;0.50;;;;;;;6.30;99.25;100038.75;5043057;28;20061;-70
2023/02/11 02:57:49;;;;;;;0.47;0.47;;;;;;;6.35;99.20;100051.66;5043605;28;20040;-70
2023/02/11 03:00:55;;;;;;;0.50;0.50;;;;;;;6.36;98.76;100073.16;5042662;28;20030;-69
2023/02/11 03:03:44;;;;;;;0.50;0.50;;;;;;;6.34;98.70;100085.19;5042593;28;20093;-71
2023/02/11 03:06:31;;;;;;;0.50;0.50;;;;;;;6.37;98.82;100091.22;5044592;28;20099;-70
2023/02/11 03:09:04;;;;;;;0.50;0.50;;;;;;;6.31;99.02;100079.16;5043390;28;20029;-70
2023/02/11 03:11:30;;;;;;;0.50;0.50;;;;;;;6.22;98.88;100067.94;5042968;28;20121;-71
2023/02/11 03:14:00;;;;;;;0.50;0.50;;;;;;;6.28;98.98;100084.28;5042577;28;20061;-72
2023/02/11 03:16:27;;;;;;;0.50;0.50;;;;;;;6.27;98.86;100067.13;5042970;28;20094;-70
2023/02/11 03:19:02;;;;;;;0.47;0.47;;;;;;;6.26;98.78;100052.47;5042485;28;20042;-69
2023/02/11 03:21:31;;;;;;;0.50;0.50;;;;;;;6.27;98.85;100072.28;5026844;28;20021;-70
2023/02/11 03:24:01;;;;;;;0.50;0.50;;;;;;;6.33;98.64;100084.31;5044349;28;20591;-71
2023/02/11 03:26:32;;;;;;;0.50;0.50;;;;;;;6.29;98.85;100093.75;5043324;28;20032;-70
2023/02/11 03:29:29;;;;;;;0.50;0.50;;;;;;;6.31;98.87;100080.88;5041232;28;20025;-71
2023/02/11 03:32:17;;;;;;;0.50;0.50;;;;;;;6.28;98.76;100092.03;5093912;28;20036;-71
2023/02/11 03:34:43;;;;;;;0.50;0.50;;;;;;;6.37;98.49;100092.94;5086950;28;20021;-71
2023/02/11 03:37:11;;;;;;;0.52;0.52;;;;;;;6.39;98.54;100076.59;5105197;28;20020;-70
2023/02/11 03:39:59;;;;;;;10.93;5.15;;;;;;;6.28;98.52;100080.84;5109138;28;20069;-70
2023/02/11 03:42:32;;;;;;;1.35;1.35;;;;;;;6.37;98.48;100087.78;5108578;28;20035;-70
2023/02/11 03:45:04;;;;;;;0.50;0.50;;;;;;;6.30;98.71;100066.25;5109287;28;20032;-71
2023/02/11 03:47:33;;;;;;;0.60;0.60;;;;;;;6.27;98.50;100063.66;5109007;28;20063;-70
2023/02/11 03:50:01;;;;;;;1.40;1.40;;;;;;;6.26;98.61;100056.78;5108925;28;20050;-71
2023/02/11 03:52:28;;;;;;;1.02;1.02;;;;;;;6.31;98.43;100071.41;5109287;28;20024;-71
2023/02/11 03:54:57;;;;;;;0.50;0.50;;;;;;;6.27;98.66;100073.97;5109094;28;20034;-71
2023/02/11 03:57:22;;;;;;;0.40;0.40;;;;;;;6.23;98.65;100075.66;5090962;28;20024;-71
2023/02/11 03:59:52;;;;;;;0.50;0.50;;;;;;;6.29;98.42;100082.59;5109103;28;20024;-71
2023/02/11 04:02:19;;;;;;;0.50;0.50;;;;;;;6.30;98.48;100076.56;5108885;28;20050;-71
2023/02/11 04:04:45;;;;;;;0.60;0.60;;;;;;;6.28;98.54;100078.28;5108894;28;20020;-70
2023/02/11 04:07:11;;;;;;;0.50;0.50;;;;;;;6.28;98.48;100073.13;5109003;28;20030;-70
2023/02/11 04:09:37;;;;;;;0.50;0.50;;;;;;;6.29;98.27;100064.53;5090465;28;20028;-70
2023/02/11 04:12:03;;;;;;;0.40;0.40;;;;;;;6.26;98.35;100023.28;5108877;28;20496;-70
2023/02/11 04:14:28;;;;;;;1.88;1.77;;;;;;;6.26;98.31;100005.25;5090213;28;20024;-70
2023/02/11 04:16:53;;;;;;;0.50;0.50;;;;;;;6.20;98.42;100026.69;5090377;28;20034;-70
2023/02/11 04:19:19;;;;;;;0.50;0.50;;;;;;;6.18;98.46;100008.63;5108467;28;20020;-71
2023/02/11 04:21:46;;;;;;;0.50;0.50;;;;;;;6.14;98.47;99963.09;5108751;28;20027;-69
2023/02/11 04:24:11;;;;;;;0.85;0.85;;;;;;;6.16;98.38;99955.38;5108403;28;20373;-70
2023/02/11 04:26:36;;;;;;;0.50;0.50;;;;;;;6.06;98.25;99945.03;5090277;28;20452;-70
2023/02/11 04:29:02;;;;;;;0.60;0.60;;;;;;;6.17;98.12;99986.31;5108516;28;20115;-69
2023/02/11 04:31:27;;;;;;;0.50;0.50;;;;;;;6.10;98.46;100054.16;5090078;28;20028;-70
2023/02/11 04:33:53;;;;;;;0.50;0.50;;;;;;;6.18;98.30;100054.19;5108164;28;20020;-70
2023/02/11 04:36:18;;;;;;;0.50;0.50;;;;;;;6.16;98.06;100058.47;5108140;28;20567;-70
2023/02/11 04:38:43;;;;;;;0.50;0.50;;;;;;;6.11;98.51;100050.72;5108376;28;20172;-70
2023/02/11 04:41:09;;;;;;;0.50;0.50;;;;;;;6.04;98.38;100051.50;5090228;28;20515;-70
2023/02/11 04:43:34;;;;;;;0.50;0.50;;;;;;;6.12;98.23;100073.06;5108111;28;20045;-69
2023/02/11 04:45:59;;;;;;;0.45;0.45;;;;;;;6.10;98.41;100077.34;5108136;28;20054;-70
2023/02/11 04:48:25;;;;;;;1.00;1.00;;;;;;;6.08;98.26;100071.31;5107341;28;20055;-71
2023/02/11 04:50:50;;;;;;;2.42;2.28;;;;;;;6.06;98.39;100039.53;5108145;28;20076;-72
2023/02/11 04:53:16;;;;;;;0.45;0.45;;;;;;;5.99;98.00;100030.03;5107925;28;20028;-70
2023/02/11 04:55:41;;;;;;;0.68;0.68;;;;;;;5.99;98.08;100045.50;5107965;28;20430;-69
2023/02/11 04:58:07;;;;;;;0.50;0.50;;;;;;;5.94;98.07;100071.22;5107872;28;20383;-69
2023/02/11 05:00:32;;;;;;;10.52;4.70;;;;;;;5.91;98.11;100082.38;5108099;28;20024;-70
2023/02/11 05:02:57;;;;;;;0.50;0.50;;;;;;;5.83;97.93;100084.06;5089546;28;20468;-71
2023/02/11 05:05:23;;;;;;;0.50;0.50;;;;;;;5.87;97.98;100115.84;5107736;28;20028;-70
2023/02/11 05:07:48;;;;;;;0.70;0.70;;;;;;;5.79;98.13;100134.69;5107850;28;20020;-71
2023/02/11 05:10:14;;;;;;;0.40;0.40;;;;;;;5.81;98.17;100140.69;5107653;28;20461;-71
2023/02/11 05:12:39;;;;;;;0.77;0.77;;;;;;;5.81;97.86;100129.56;5107665;28;20024;-71
2023/02/11 05:15:05;;;;;;;0.50;0.50;;;;;;;5.76;98.04;100118.34;5107533;28;20429;-71
2023/02/11 05:17:30;;;;;;;0.50;0.50;;;;;;;5.77;98.05;100138.09;5107327;28;20039;-70
2023/02/11 05:19:56;;;;;;;0.50;0.50;;;;;;;5.70;98.33;100124.31;5107194;28;20341;-70
2023/02/11 05:22:21;;;;;;;0.50;0.50;;;;;;;5.74;98.30;100140.66;5107323;28;20028;-70
2023/02/11 05:24:46;;;;;;;0.50;0.50;;;;;;;5.74;98.22;100143.22;5107366;28;20035;-70
2023/02/11 05:27:12;;;;;;;0.50;0.50;;;;;;;5.71;98.49;100151.81;5089001;28;20049;-70
2023/02/11 05:29:37;;;;;;;0.50;0.50;;;;;;;5.68;98.17;100147.50;5088805;28;20024;-71
2023/02/11 05:32:03;;;;;;;1.83;1.73;;;;;;;5.69;98.28;100145.75;5107271;28;20020;-70
2023/02/11 05:34:28;;;;;;;0.50;0.50;;;;;;;5.78;98.05;100150.13;5105507;28;20016;-71
2023/02/11 05:36:54;;;;;;;0.50;0.50;;;;;;;5.73;98.27;100156.97;5107032;28;20115;-71
2023/02/11 05:39:19;;;;;;;0.50;0.50;;;;;;;5.75;98.48;100161.25;5107311;28;20020;-70
2023/02/11 05:41:45;;;;;;;0.50;0.50;;;;;;;5.71;98.40;100156.94;5107065;28;20440;-71
2023/02/11 05:44:10;;;;;;;0.50;0.50;;;;;;;5.77;98.45;100189.63;5088525;28;20028;-71
2023/02/11 05:46:36;;;;;;;1.40;1.40;;;;;;;5.75;98.38;100181.03;5106766;28;20024;-71
2023/02/11 05:49:01;;;;;;;0.50;0.50;;;;;;;5.75;98.26;100171.56;5106841;28;20031;-71
2023/02/11 05:51:27;;;;;;;0.50;0.50;;;;;;;5.77;98.56;100175.03;5106730;28;20019;-71
2023/02/11 05:53:52;;;;;;;0.50;0.50;;;;;;;5.78;98.29;100173.31;5106743;28;20023;-73
2023/02/11 05:56:18;;;;;;;0.50;0.50;;;;;;;5.79;98.27;100183.63;5106773;28;20463;-72
2023/02/11 05:58:43;;;;;;;0.50;0.50;;;;;;;5.80;97.64;100189.63;5106671;28;20092;-72
2023/02/11 06:01:09;;;;;;;0.75;0.75;;;;;;;5.79;97.48;100178.50;5106138;28;20432;-72
2023/02/11 06:03:34;;;;;;;1.08;1.08;;;;;;;5.82;97.21;100175.06;5106290;28;20523;-72
2023/02/11 06:05:59;;;;;;;0.50;0.50;;;;;;;5.88;96.83;100166.53;5088410;28;20538;-72
2023/02/11 06:08:25;;;;;;;0.60;0.60;;;;;;;5.89;96.84;100171.69;5088289;28;20028;-72
2023/02/11 06:10:50;;;;;;;0.60;0.60;;;;;;;5.93;96.70;100160.53;5106293;28;20028;-71
2023/02/11 06:13:17;;;;;;;0.50;0.50;;;;;;;5.98;95.98;100170.88;5106412;28;20026;-72
2023/02/11 06:15:43;;;;;;;0.70;0.70;;;;;;;6.01;95.97;100182.91;5088001;28;20047;-73
2023/02/11 06:18:09;;;;;;;0.50;0.50;;;;;;;5.95;95.77;100187.19;5088391;28;20388;-72
2023/02/11 06:20:34;;;;;;;0.50;0.50;;;;;;;5.99;95.50;100179.50;5106955;28;20017;-73
2023/02/11 06:23:00;;;;;;;0.63;0.63;;;;;;;5.94;95.73;100188.03;5107101;28;20103;-72
2023/02/11 06:25:25;;;;;;;0.95;0.95;;;;;;;6.00;94.89;100207.84;5109934;28;20055;-71
2023/02/11 06:27:51;;;;;;;0.50;0.50;;;;;;;5.98;95.30;100209.53;5109337;28;20081;-73
2023/02/11 06:30:16;;;;;;;0.50;0.50;;;;;;;5.96;94.90;100211.22;5109963;28;20020;-73
2023/02/11 06:32:42;;;;;;;0.68;0.68;;;;;;;5.95;94.89;100205.22;5090810;28;20028;-74
2023/02/11 06:35:07;;;;;;;0.50;0.50;;;;;;;6.01;95.35;100204.41;5090734;28;20031;-71
2023/02/11 06:37:34;;;;;;;0.50;0.50;;;;;;;6.02;94.36;100197.53;5108013;28;20046;-72
2023/02/11 06:39:59;;;;;;;0.50;0.50;;;;;;;6.07;94.74;100209.63;5106228;28;20034;-72
2023/02/11 06:42:25;;;;;;;0.50;0.50;;;;;;;5.92;95.00;100207.78;5105923;28;20080;-72
2023/02/11 06:44:50;;;;;;;0.50;0.50;;;;;;;5.97;94.60;100219.84;5105692;28;20043;-72
2023/02/11 06:47:15;;;;;;;2.38;2.28;;;;;;;5.92;94.50;100209.50;5105599;28;20044;-72
2023/02/11 06:49:41;;;;;;;0.50;0.50;;;;;;;5.95;94.43;100218.13;5105331;28;20030;-72
2023/02/11 06:52:07;;;;;;;0.50;0.50;;;;;;;6.00;94.26;100227.59;5105512;28;20031;-73
2023/02/11 06:54:32;;;;;;;0.60;0.60;;;;;;;5.97;94.12;100255.91;5105486;28;20028;-73
2023/02/11 06:56:57;;;;;;;0.50;0.50;;;;;;;6.04;94.22;100255.09;5105419;28;20024;-73
2023/02/11 06:59:23;;;;;;;0.50;0.50;;;;;;;5.99;94.13;100249.06;5105628;28;20498;-72
2023/02/11 07:01:48;;;;;;;0.50;0.50;;;;;;;5.97;94.08;100261.06;5105597;28;20379;-73
2023/02/11 07:04:14;;;;;;;0.50;0.50;;;;;;;5.99;93.59;100278.25;5105272;28;20472;-73
2023/02/11 07:06:40;;;;;;;0.50;0.50;;;;;;;6.06;93.79;100274.06;5105375;28;20023;-73
2023/02/11 07:09:06;;;;;;;0.80;0.80;;;;;;;6.10;93.65;100277.53;5105472;28;20475;-74
2023/02/11 07:11:32;;;;;;;0.50;0.50;;;;;;;6.12;93.17;100274.09;5087172;28;20024;-73
2023/02/11 07:14:04;;;;;;;0.40;0.40;;;;;;;6.22;92.51;100290.50;5086518;28;20020;-74
2023/02/11 07:16:30;;;;;;;0.50;0.50;;;;;;;6.32;92.07;100287.16;5105969;28;20035;-74
2023/02/11 07:18:55;;;;;;;0.50;0.50;;;;;;;6.43;92.55;100286.34;5105207;28;20031;-74
2023/02/11 07:21:23;;;;;;;0.50;0.50;;;;;;;6.49;92.71;100291.56;5105197;28;20020;-73
2023/02/11 07:23:49;;;;;;;0.50;0.50;;;;;;;6.54;91.63;100287.31;5086925;28;20054;-73
2023/02/11 07:26:17;;;;;;;0.50;0.50;;;;;;;6.57;90.29;100296.75;5104820;28;20024;-73
2023/02/11 07:28:43;;;;;;;0.50;0.50;;;;;;;6.66;89.70;100296.81;5103961;28;20035;-74
2023/02/11 07:31:18;;;;;;;0.45;0.45;;;;;;;6.77;90.29;100309.78;5086523;28;20032;-74
2023/02/11 07:33:47;;;;;;;0.50;0.50;;;;;;;6.91;90.14;100327.06;5086703;28;20016;-73
2023/02/11 07:36:14;;;;;;;0.50;0.50;;;;;;;6.99;89.06;100337.44;5105224;28;20032;-73
2023/02/11 07:38:40;;;;;;;2.05;1.95;;;;;;;7.17;89.56;100347.00;5086797;28;20034;-74
2023/02/11 07:41:08;;;;;;;0.43;0.43;;;;;;;7.41;89.89;100355.69;5104980;28;20028;-73
2023/02/11 07:43:34;;;;;;;0.50;0.50;;;;;;;7.76;88.77;100359.25;5105135;28;20020;-74
2023/02/11 07:46:23;;;;;;;0.50;0.50;;;;;;;8.10;86.96;100361.88;5086877;28;20175;-73
2023/02/11 07:48:48;;;;;;;0.50;0.50;;;;;;;8.52;88.54;100363.63;5104657;28;20044;-74
2023/02/11 07:51:19;;;;;;;0.45;0.45;;;;;;;8.86;86.74;100370.53;5086832;28;20142;-72
2023/02/11 07:53:46;;;;;;;0.40;0.40;;;;;;;9.14;87.94;100371.31;5086788;28;20059;-72
2023/02/11 07:56:13;;;;;;;0.50;0.50;;;;;;;9.41;89.09;100381.56;5105189;28;20032;-73
2023/02/11 07:58:41;;;;;;;0.40;0.40;;;;;;;9.69;87.93;100391.81;5104810;28;20028;-72
2023/02/11 08:01:11;;;;;;;3.10;1.58;;;;;;;10.02;85.60;100402.00;5104970;28;20034;-74
2023/02/11 08:03:38;;;;;;;0.50;0.50;;;;;;;10.38;86.12;100405.22;5086470;28;20029;-75
2023/02/11 08:06:05;;;;;;;0.38;0.38;;;;;;;10.64;85.16;100411.97;5105080;28;20013;-76
2023/02/11 08:08:30;;;;;;;0.50;0.50;;;;;;;10.96;82.99;100401.31;5105479;28;20031;-75
2023/02/11 08:10:56;;;;;;;0.50;0.50;;;;;;;11.31;81.52;100414.78;5105457;28;20040;-75
2023/02/11 08:13:21;;;;;;;0.43;0.43;;;;;;;11.61;79.25;100421.34;5086499;28;20023;-75
2023/02/11 08:15:47;;;;;;;0.50;0.50;;;;;;;11.82;78.00;100424.56;5086692;28;20121;-73
2023/02/11 08:18:18;;;;;;;0.50;0.50;;;;;;;11.93;75.67;100436.56;5105017;28;20464;-76
2023/02/11 08:20:44;;;;;;;0.40;0.40;;;;;;;11.98;76.96;100442.56;5086429;28;20027;-75
2023/02/11 08:23:09;;;;;;;0.40;0.40;;;;;;;12.21;77.04;100452.69;5104803;28;20028;-75
2023/02/11 08:25:34;;;;;;;0.40;0.40;;;;;;;12.34;77.38;100450.75;5108183;28;20024;-76
2023/02/11 08:28:00;;;;;;;0.40;0.40;;;;;;;12.36;76.40;100459.38;5088938;28;20020;-74
2023/02/11 08:30:25;;;;;;;0.30;0.30;;;;;;;12.35;75.23;100475.91;5088953;28;20032;-73
2023/02/11 08:32:51;;;;;;;0.40;0.40;;;;;;;12.07;75.02;100488.41;5107528;28;20528;-73
2023/02/11 08:35:16;;;;;;;0.55;0.55;;;;;;;11.87;74.48;100492.13;5107633;28;20449;-75
2023/02/11 08:37:42;;;;;;;0.40;0.40;;;;;;;11.69;75.04;100494.09;5108456;28;20051;-75
2023/02/11 08:40:08;;;;;;;0.40;0.40;;;;;;;11.65;76.25;100503.66;5107044;28;20020;-75
2023/02/11 08:42:33;;;;;;;0.50;0.50;;;;;;;11.59;74.99;100524.53;5106956;28;20028;-75
2023/02/11 08:44:58;;;;;;;0.40;0.40;;;;;;;11.35;75.67;100518.72;5108205;28;20024;-75
2023/02/11 08:47:24;;;;;;;3.42;3.22;;;;;;;11.19;74.53;100535.31;5107659;28;20139;-74
2023/02/11 08:49:49;;;;;;;1.40;1.33;;;;;;;10.83;74.65;100546.84;5089727;28;20024;-72
2023/02/11 08:52:15;;;;;;;3.15;2.95;;;;;;;10.56;75.28;100548.75;5108086;28;20032;-73
2023/02/11 08:54:40;;;;;;;0.50;0.50;;;;;;;10.34;75.31;100522.91;5108100;28;20035;-73
2023/02/11 08:57:06;;;;;;;0.60;0.60;;;;;;;10.72;77.87;100546.09;5108138;28;20028;-74
2023/02/11 08:59:32;;;;;;;0.40;0.40;;;;;;;11.11;78.31;100546.66;5090028;28;20024;-74
2023/02/11 09:01:57;;;;;;;0.40;0.40;;;;;;;11.30;78.41;100548.19;5089731;28;20027;-73
2023/02/11 09:04:22;;;;;;;0.47;0.47;;;;;;;11.37;78.73;100562.88;5089421;28;20066;-74
2023/02/11 09:06:48;;;;;;;0.50;0.50;;;;;;;11.33;78.29;100576.75;5107861;28;20024;-74
2023/02/11 09:09:15;;;;;;;0.40;0.40;;;;;;;11.20;78.28;100595.06;5108020;28;20052;-74
2023/02/11 09:11:42;;;;;;;2.88;1.95;;;;;;;11.03;79.47;100592.59;5107803;28;20027;-75
2023/02/11 09:14:16;;;;;;;0.40;0.40;;;;;;;10.83;80.04;100609.16;5089656;28;20065;-75
2023/02/11 09:16:41;;;;;;;0.85;0.85;;;;;;;10.79;81.04;100615.28;5089622;28;20469;-75
2023/02/11 09:19:09;;;;;;;0.40;0.40;;;;;;;10.67;81.81;100613.63;5107767;28;20035;-75
2023/02/11 09:21:34;;;;;;;0.40;0.40;;;;;;;10.63;81.50;100630.94;5107867;28;20030;-75
2023/02/11 09:24:00;;;;;;;0.65;0.65;;;;;;;10.49;81.51;100643.13;5111023;28;20048;-74
2023/02/11 09:26:28;;;;;;;4.88;1.33;;;;;;;10.31;80.86;100634.50;5117151;28;20070;-76
2023/02/11 09:28:54;;;;;;;0.40;0.40;;;;;;;10.20;80.99;100654.44;5108445;28;20024;-77
2023/02/11 09:31:22;;;;;;;0.70;0.70;;;;;;;10.13;80.58;100674.31;5108360;28;20033;-74
2023/02/11 09:33:50;;;;;;;0.73;0.73;;;;;;;10.05;80.04;100676.94;5107160;28;20022;-75
2023/02/11 09:36:21;;;;;;;0.40;0.40;;;;;;;10.02;80.50;100670.03;5088072;28;20031;-75
2023/02/11 09:38:47;;;;;;;0.35;0.35;;;;;;;10.26;81.26;100673.44;5107353;28;20031;-74
2023/02/11 09:41:22;;;;;;;0.50;0.50;;;;;;;10.62;81.95;100672.50;5107386;28;20024;-75
2023/02/11 09:44:01;;;;;;;0.65;0.65;;;;;;;11.06;82.31;100680.03;5088874;28;20092;-76
2023/02/11 09:46:32;;;;;;;0.40;0.40;;;;;;;11.63;81.22;100690.03;5107185;28;20079;-72
2023/02/11 09:48:58;;;;;;;0.40;0.40;;;;;;;11.96;82.11;100684.56;5106863;28;20232;-73
2023/02/11 09:51:23;;;;;;;0.30;0.30;;;;;;;12.26;81.69;100700.78;5106755;28;20035;-74
2023/02/11 09:53:55;;;;;;;0.60;0.60;;;;;;;12.37;82.02;100704.97;5106808;28;20028;-74
2023/02/11 09:56:21;;;;;;;0.40;0.40;;;;;;;12.41;81.94;100713.63;5106996;28;20016;-71
2023/02/11 09:58:47;;;;;;;0.32;0.32;;;;;;;12.47;81.24;100735.25;5106685;28;20032;-68
2023/02/11 10:01:40;;;;;;;0.40;0.40;;;;;;;12.55;80.21;100731.69;5106856;28;20380;-69
2023/02/11 10:04:26;;;;;;;0.30;0.30;;;;;;;12.67;80.55;100741.13;5106331;28;20020;-72
2023/02/11 10:07:24;;;;;;;1.95;1.85;;;;;;;12.62;80.31;100743.78;5105921;28;20065;-73
2023/02/11 10:10:07;;;;;;;1.38;1.38;;;;;;;12.69;81.77;100755.84;5088338;28;20468;-71
2023/02/11 10:12:48;;;;;;;0.32;0.32;;;;;;;12.76;81.69;100767.06;5106522;28;20028;-70
2023/02/11 10:15:32;;;;;;;0.40;0.40;;;;;;;12.89;80.39;100768.63;5106583;28;20047;-70
2023/02/11 10:18:14;;;;;;;0.32;0.32;;;;;;;12.96;79.47;100765.94;5106500;28;20035;-71
2023/02/11 10:20:56;;;;;;;0.45;0.45;;;;;;;13.07;79.41;100782.31;5106184;28;20020;-69
2023/02/11 10:23:25;;;;;;;1.25;1.10;;;;;;;13.09;80.35;100793.59;5106311;28;20024;-69
2023/02/11 10:25:53;;;;;;;0.30;0.30;;;;;;;13.20;80.79;100803.00;5088024;28;20039;-69
2023/02/11 10:28:41;;;;;;;0.35;0.35;;;;;;;13.15;79.96;100805.66;5087938;28;20043;-71
2023/02/11 10:31:32;;;;;;;1.20;1.20;;;;;;;13.01;78.25;100805.84;5106026;28;20517;-71
2023/02/11 10:34:09;;;;;;;0.40;0.40;;;;;;;12.93;78.77;100812.88;5105896;28;20044;-70
2023/02/11 10:36:40;;;;;;;3.45;2.95;;;;;;;12.94;79.84;100812.03;5105984;28;20028;-69
2023/02/11 10:39:20;;;;;;;0.73;0.73;;;;;;;12.95;80.74;100824.16;5106340;28;20024;-71
2023/02/11 10:41:48;;;;;;;0.43;0.43;;;;;;;12.93;80.90;100825.91;5088183;28;20039;-68
2023/02/11 10:44:29;;;;;;;0.45;0.45;;;;;;;12.75;79.83;100836.53;5105751;28;20028;-69
2023/02/11 10:46:58;;;;;;;1.60;1.55;;;;;;;12.51;79.28;100845.44;5105566;28;20064;-69
2023/02/11 10:49:32;;;;;;;0.40;0.40;;;;;;;12.12;78.93;100841.44;5105434;28;20027;-70
2023/02/11 10:52:16;;;;;;;0.75;0.75;;;;;;;11.73;77.64;100856.41;5105697;28;20071;-70
2023/02/11 10:55:15;;;;;;;0.40;0.40;;;;;;;11.45;79.13;100846.19;5104250;28;20027;-70
2023/02/11 10:57:52;;;;;;;5.63;2.15;;;;;;;11.35;79.58;100873.94;5105868;28;20020;-70
2023/02/11 11:00:17;;;;;;;0.45;0.45;;;;;;;11.20;79.61;100880.09;5105956;28;20031;-69
2023/02/11 11:02:45;;;;;;;0.40;0.40;;;;;;;11.04;79.85;100880.09;5105509;28;20027;-69
2023/02/11 11:05:20;;;;;;;0.40;0.40;;;;;;;10.97;80.33;100873.22;5105254;28;20020;-70
2023/02/11 11:08:00;;;;;;;4.30;3.90;;;;;;;10.70;79.47;100869.81;5105518;28;20030;-70
2023/02/11 11:10:41;;;;;;;0.40;0.40;;;;;;;10.68;79.98;100894.91;5105319;28;20020;-70
2023/02/11 11:13:23;;;;;;;0.50;0.50;;;;;;;10.43;78.71;100889.69;5087142;28;20027;-69
2023/02/11 11:16:15;;;;;;;0.70;0.70;;;;;;;10.41;81.00;100884.50;5105040;28;20056;-65
2023/02/11 11:18:45;;;;;;;0.52;0.52;;;;;;;10.37;81.64;100898.31;5108954;28;20107;-64
2023/02/11 11:21:39;;;;;;;0.40;0.40;;;;;;;10.40;82.28;100901.81;5088561;28;20020;-66
2023/02/11 11:24:13;;;;;;;0.40;0.40;;;;;;;10.47;83.63;100900.09;5087226;28;20411;-69
2023/02/11 11:26:48;;;;;;;0.40;0.40;;;;;;;10.63;83.70;100903.56;5104756;28;20024;-68
2023/02/11 11:29:34;;;;;;;0.50;0.50;;;;;;;10.74;83.89;100900.97;5104385;28;20016;-73
2023/02/11 11:32:04;;;;;;;0.40;0.40;;;;;;;10.97;84.28;100917.38;5105062;28;20028;-66
2023/02/11 11:34:37;;;;;;;0.40;0.40;;;;;;;11.11;84.28;100936.41;5105473;28;20092;-65
2023/02/11 11:37:10;;;;;;;0.40;0.40;;;;;;;11.23;83.45;100945.03;5105653;28;20020;-67
2023/02/11 11:39:35;;;;;;;0.70;0.70;;;;;;;11.42;83.91;100947.59;5105686;28;20028;-66
2023/02/11 11:42:23;;;;;;;0.45;0.45;;;;;;;11.48;80.80;100953.63;5070599;28;20073;-65
2023/02/11 11:44:59;;;;;;;0.40;0.40;;;;;;;11.45;79.38;100956.25;5086985;28;20024;-67
2023/02/11 11:47:58;;;;;;;0.85;0.85;;;;;;;11.53;81.25;100970.06;5104908;28;20125;-66